sensor_id;sensor_type;location;lat;lon;timestamp;pressure;altitude;pressure_sealevel;temperature;humidity
25080;BME280;13071;48.868;9.996;2023-08-17T13:06:07;96482.84;;;28.31;68.65
25080;BME280;13071;48.868;9.996;2023-08-17T13:08:34;96485.06;;;28.23;69.43
25080;BME280;13071;48.868;9.996;2023-08-17T13:11:01;96486.03;;;28.42;68.84
25080;BME280;13071;48.868;9.996;2023-08-17T13:13:27;96484.06;;;28.30;71.51
25080;BME280;13071;48.868;9.996;2023-08-17T13:15:54;96484.69;;;28.47;72.46
25080;BME280;13071;48.868;9.996;2023-08-17T13:18:21;96488.44;;;28.53;72.99
25080;BME280;13071;48.868;9.996;2023-08-17T13:20:51;96486.44;;;28.53;72.59
25080;BME280;13071;48.868;9.996;2023-08-17T13:23:20;96494.34;;;28.55;71.97
25080;BME280;13071;48.868;9.996;2023-08-17T13:25:47;96485.66;;;28.53;72.17
25080;BME280;13071;48.868;9.996;2023-08-17T13:28:14;96482.56;;;28.51;71.75
25080;BME280;13071;48.868;9.996;2023-08-17T13:30:40;96487.56;;;28.43;72.03
25080;BME280;13071;48.868;9.996;2023-08-17T13:33:10;96482.00;;;28.43;72.16
25080;BME280;13071;48.868;9.996;2023-08-17T13:35:40;96471.38;;;28.29;72.01
25080;BME280;13071;48.868;9.996;2023-08-17T13:38:08;96467.94;;;28.25;72.03
25080;BME280;13071;48.868;9.996;2023-08-17T13:40:36;96472.19;;;28.17;72.69
25080;BME280;13071;48.868;9.996;2023-08-17T13:43:04;96462.97;;;28.07;74.00
25080;BME280;13071;48.868;9.996;2023-08-17T13:45:40;96454.66;;;27.82;75.38
25080;BME280;13071;48.868;9.996;2023-08-17T13:48:07;96464.13;;;27.72;76.24
25080;BME280;13071;48.868;9.996;2023-08-17T13:50:38;96471.78;;;27.55;76.75
25080;BME280;13071;48.868;9.996;2023-08-17T13:53:05;96459.56;;;27.53;76.97
25080;BME280;13071;48.868;9.996;2023-08-17T13:55:33;96473.66;;;27.33;78.44
25080;BME280;13071;48.868;9.996;2023-08-17T13:58:02;96473.84;;;27.13;78.56
25080;BME280;13071;48.868;9.996;2023-08-17T14:00:29;96487.16;;;27.05;79.19
25080;BME280;13071;48.868;9.996;2023-08-17T14:02:55;96484.25;;;26.96;80.35
25080;BME280;13071;48.868;9.996;2023-08-17T14:05:23;96498.78;;;26.88;79.97
25080;BME280;13071;48.868;9.996;2023-08-17T14:07:50;96520.91;;;26.75;79.65
25080;BME280;13071;48.868;9.996;2023-08-17T14:10:16;96527.22;;;26.63;80.66
25080;BME280;13071;48.868;9.996;2023-08-17T14:12:44;96533.31;;;26.42;80.47
25080;BME280;13071;48.868;9.996;2023-08-17T14:15:12;96526.72;;;26.36;80.85
25080;BME280;13071;48.868;9.996;2023-08-17T14:17:39;96530.22;;;26.24;81.42
25080;BME280;13071;48.868;9.996;2023-08-17T14:20:06;96531.81;;;26.21;81.39
25080;BME280;13071;48.868;9.996;2023-08-17T14:22:34;96532.97;;;26.07;82.51
25080;BME280;13071;48.868;9.996;2023-08-17T14:25:04;96537.66;;;25.94;83.22
25080;BME280;13071;48.868;9.996;2023-08-17T14:27:31;96542.13;;;25.88;83.47
25080;BME280;13071;48.868;9.996;2023-08-17T14:29:58;96542.38;;;25.77;83.33
25080;BME280;13071;48.868;9.996;2023-08-17T14:32:29;96537.97;;;25.64;84.70
25080;BME280;13071;48.868;9.996;2023-08-17T14:34:55;96532.72;;;25.50;86.47
25080;BME280;13071;48.868;9.996;2023-08-17T14:37:22;96538.81;;;25.41;88.01
25080;BME280;13071;48.868;9.996;2023-08-17T14:39:48;96539.31;;;25.36;90.24
25080;BME280;13071;48.868;9.996;2023-08-17T14:42:15;96534.94;;;25.19;93.69
25080;BME280;13071;48.868;9.996;2023-08-17T14:44:42;96535.06;;;25.31;94.55
25080;BME280;13071;48.868;9.996;2023-08-17T14:47:08;96527.75;;;25.21;94.11
25080;BME280;13071;48.868;9.996;2023-08-17T14:49:36;96522.47;;;25.11;96.53
25080;BME280;13071;48.868;9.996;2023-08-17T14:52:04;96526.34;;;25.13;96.53
25080;BME280;13071;48.868;9.996;2023-08-17T14:54:30;96521.91;;;25.00;98.48
25080;BME280;13071;48.868;9.996;2023-08-17T14:57:00;96501.88;;;24.92;99.52
25080;BME280;13071;48.868;9.996;2023-08-17T14:59:26;96496.38;;;24.69;100.00
25080;BME280;13071;48.868;9.996;2023-08-17T15:01:53;96474.53;;;24.74;100.00
